首页
METAR-TAF:

METAR-TAF

机场 :

Eastover, 南卡罗来纳州, 美国

McEntire Joint National Guard Base

纬度: 33-55N, 经度: 080-48W, 海拔: 77米

当前天气观测

该预报发布于12分钟前的14:06 UTC
风速4节,风向东转东南
温度 19°C
湿度 100%
气压 1012 hPa
能見度: 8.0公里
多云层高于400英尺
阴天层高于1000英尺
轻雾

METAR: KMMT 241406Z 12004KT 5SM BR BKN004 OVC010 19/19 A2987 RMK AO2A SLP116 $

时间: 10:18 (14:18 UTC)

预报

该预报发布于17分钟前的14:01 UTC
预报有效从24日的 14点(UTC)到 25日的 13点(UTC)
风速12节,风向
能見度: 6000
阴天层高于200英尺
小阵雨
成为
从 24日的 16点(UTC)到 24日的 17点(UTC)
风速12节,风向西南,有时为18节阵风
能见度10公里或以上
多云层高于3000英尺
阴天层高于10000英尺
成为
从 24日的 21点(UTC)到 24日的 22点(UTC)
风速6节,风向西转西南
能见度10公里或以上
散云层高于3000英尺
多云层高于4500英尺
多云层高于10000英尺

TAF: KMMT 241401Z 2414/2513 10012KT 6000 -SHRA OVC002 QNH2986INS BECMG 2416/2417 22012G18KT 9999 NSW BKN030 OVC100 QNH2980INS BECMG 2421/2422 25006KT 9999 SCT030 BKN045 BKN100 QNH2982INS TX26/2420Z TN16/2507Z

超过4000个机场的气象观测和天气预报(METAR&TAF报告)。

可查询的气象台以黄色和红色小点在地图上表示。

将鼠标移到小点上方,可查看气象台名称。

然后点击查看天气观测和预报。

如需切换地图:点击带黑十字的绿色按钮放大地图;点击带横线的绿色按钮缩小地图;或者点击绿色箭头查看邻近地区的地图。


METAR-TAF: